Time;durP1;ratioP1;P1;durP2;ratioP2;P2;SDS_P1;SDS_P2;PMS_P1;PMS_P2;Temp;Humidity;BMP_temperature;BMP_pressure;BME280_temperature;BME280_humidity;BME280_pressure;Samples;Min_cycle;Max_cycle;Signal;HPM_P1;HPM_P2
2021/06/07 00:01:51;;;;;;;6.78;3.20;;;;;;;13.36;99.77;99062.66;1688976;85;20855;-69
2021/06/07 00:04:17;;;;;;;;;;;;;;;13.32;99.77;99061.75;1691463;85;20949;-68
2021/06/07 00:06:44;;;;;;;5.10;3.20;;;;;;;13.28;99.65;99068.32;1689064;85;20087;-70
2021/06/07 00:09:14;;;;;;;9.75;3.45;;;;;;;13.21;99.78;99069.70;1688895;85;21092;-69
2021/06/07 00:11:46;;;;;;;7.70;3.30;;;;;;;13.17;100.00;99066.59;1688927;84;21016;-69
2021/06/07 00:14:15;;;;;;;5.75;3.02;;;;;;;13.13;99.90;99072.53;1689175;85;20939;-69
2021/06/07 00:16:43;;;;;;;11.43;3.17;;;;;;;13.09;100.00;99069.66;1663400;85;21038;-69
2021/06/07 00:19:14;;;;;;;11.30;3.60;;;;;;;13.06;100.00;99066.22;1689235;85;20898;-68
2021/06/07 00:21:40;;;;;;;5.17;2.90;;;;;;;13.02;99.97;99063.92;1688933;84;21143;-68
2021/06/07 00:24:08;;;;;;;11.08;3.52;;;;;;;12.98;100.00;99072.64;1689068;85;21422;-69
2021/06/07 00:26:36;;;;;;;5.03;3.30;;;;;;;12.92;100.00;99069.07;1689202;85;20922;-68
2021/06/07 00:29:06;;;;;;;5.47;3.30;;;;;;;12.86;100.00;99069.86;1688956;85;20990;-69
2021/06/07 00:31:34;;;;;;;6.20;3.15;;;;;;;12.80;99.90;99067.91;1689124;85;21008;-68
2021/06/07 00:34:01;;;;;;;4.92;3.27;;;;;;;12.78;100.00;99070.77;1688899;85;21532;-68
2021/06/07 00:36:27;;;;;;;7.90;3.62;;;;;;;12.82;100.00;99067.56;1689200;85;20923;-68
2021/06/07 00:38:54;;;;;;;6.42;3.10;;;;;;;12.84;100.00;99062.52;1688907;85;20922;-68
2021/06/07 00:41:22;;;;;;;5.25;3.30;;;;;;;12.88;100.00;99064.81;1688959;85;20993;-69
2021/06/07 00:43:56;;;;;;;5.00;3.50;;;;;;;12.90;100.00;99064.70;1688926;85;21466;-69
2021/06/07 00:46:23;;;;;;;7.45;3.17;;;;;;;12.97;100.00;99060.58;1688965;84;21070;-69
2021/06/07 00:48:52;;;;;;;4.60;3.27;;;;;;;12.99;100.00;99068.73;1688867;85;21588;-69
2021/06/07 00:51:18;;;;;;;5.72;2.92;;;;;;;12.97;100.00;99069.65;1689136;84;20931;-69
2021/06/07 00:53:47;;;;;;;9.73;3.75;;;;;;;12.93;100.00;99063.22;1688951;85;21427;-69
2021/06/07 00:56:15;;;;;;;8.03;3.22;;;;;;;12.91;100.00;99062.76;1689065;85;21407;-69
2021/06/07 00:58:48;;;;;;;4.80;3.12;;;;;;;12.88;100.00;99065.63;1688948;85;20982;-69
2021/06/07 01:01:18;;;;;;;13.83;3.15;;;;;;;12.85;100.00;99060.80;1689174;84;21088;-70
2021/06/07 01:03:46;;;;;;;9.20;3.58;;;;;;;12.80;100.00;99067.09;1689044;85;20883;-69
2021/06/07 01:06:13;;;;;;;4.45;2.90;;;;;;;12.78;100.00;99070.77;1689158;85;21485;-67
2021/06/07 01:08:41;;;;;;;5.95;3.17;;;;;;;12.74;100.00;99067.89;1688839;85;20966;-68
2021/06/07 01:11:07;;;;;;;8.85;2.60;;;;;;;12.73;100.00;99064.10;1689018;85;21115;-69
2021/06/07 01:13:36;;;;;;;4.85;2.60;;;;;;;12.75;100.00;99065.94;1688878;84;20891;-68
2021/06/07 01:16:03;;;;;;;4.08;3.08;;;;;;;12.79;100.00;99068.25;1689243;85;20990;-68
2021/06/07 01:18:30;;;;;;;4.53;2.92;;;;;;;12.83;100.00;99065.04;1688883;85;21584;-68
2021/06/07 01:21:01;;;;;;;4.33;2.80;;;;;;;12.87;100.00;99063.20;1689033;85;20945;-68
2021/06/07 01:23:27;;;;;;;4.22;3.08;;;;;;;12.89;100.00;99065.05;1688860;84;21053;-70
2021/06/07 01:25:56;;;;;;;3.90;2.37;;;;;;;12.84;100.00;99068.83;1663105;85;21586;-69
2021/06/07 01:28:22;;;;;;;5.40;2.80;;;;;;;12.81;100.00;99069.52;1688975;85;20954;-69
2021/06/07 01:30:50;;;;;;;9.85;2.87;;;;;;;12.77;100.00;99074.09;1689220;85;21434;-69
2021/06/07 01:33:19;;;;;;;14.05;2.90;;;;;;;12.72;100.00;99075.69;1688933;84;20938;-69
2021/06/07 01:35:46;;;;;;;4.12;2.85;;;;;;;12.68;100.00;99075.37;1689154;85;21160;-68
2021/06/07 01:38:12;;;;;;;7.20;2.90;;;;;;;12.64;100.00;99074.44;1688835;85;21002;-69
2021/06/07 01:40:45;;;;;;;4.78;2.98;;;;;;;12.61;100.00;99076.50;1663232;85;20902;-69
2021/06/07 01:43:12;;;;;;;5.75;2.90;;;;;;;12.55;100.00;99081.41;1688624;85;20990;-69
2021/06/07 01:45:41;;;;;;;6.03;2.90;;;;;;;12.52;100.00;99083.47;1688900;85;20943;-69
2021/06/07 01:48:10;;;;;;;6.15;3.62;;;;;;;12.45;100.00;99083.21;1688904;85;21138;-70
2021/06/07 01:50:36;;;;;;;5.28;3.33;;;;;;;12.41;100.00;99089.16;1689084;85;21474;-71
2021/06/07 01:53:04;;;;;;;3.98;3.10;;;;;;;12.38;100.00;99082.39;1688864;84;20958;-69
2021/06/07 01:55:42;;;;;;;6.15;3.25;;;;;;;12.41;100.00;99088.59;1688877;85;21021;-68
2021/06/07 01:58:10;;;;;;;8.58;3.22;;;;;;;12.48;100.00;99086.66;1688559;84;20935;-68
2021/06/07 02:00:48;;;;;;;5.65;2.52;;;;;;;12.56;100.00;99089.33;1688992;85;21099;-68
2021/06/07 02:03:16;;;;;;;4.40;2.90;;;;;;;12.63;100.00;99089.35;1663172;85;20950;-68
2021/06/07 02:05:48;;;;;;;10.80;3.35;;;;;;;12.69;100.00;99086.61;1663263;85;21561;-68
2021/06/07 02:08:15;;;;;;;9.83;2.98;;;;;;;12.74;100.00;99086.37;1689496;85;21451;-69
2021/06/07 02:10:45;;;;;;;3.70;2.90;;;;;;;12.78;100.00;99090.05;1689088;85;20994;-68
2021/06/07 02:13:12;;;;;;;4.25;3.12;;;;;;;12.81;100.00;99092.92;1663547;85;21177;-68
2021/06/07 02:15:41;;;;;;;6.78;3.37;;;;;;;12.84;100.00;99091.44;1689031;85;20993;-68
2021/06/07 02:18:10;;;;;;;6.70;3.10;;;;;;;12.86;100.00;99091.33;1689303;84;20871;-68
2021/06/07 02:20:38;;;;;;;6.10;2.87;;;;;;;12.87;100.00;99095.70;1689209;85;20918;-68
2021/06/07 02:23:05;;;;;;;5.40;2.80;;;;;;;12.90;100.00;99099.14;1685977;83;21026;-69
2021/06/07 02:25:31;;;;;;;6.87;3.85;;;;;;;12.93;100.00;99098.23;1689299;85;21061;-68
2021/06/07 02:27:58;;;;;;;6.28;3.30;;;;;;;12.96;100.00;99105.81;1689473;84;20943;-69
2021/06/07 02:30:28;;;;;;;5.87;3.17;;;;;;;13.00;100.00;99105.36;1689434;84;20960;-68
2021/06/07 02:32:58;;;;;;;9.00;2.85;;;;;;;13.03;100.00;99106.05;1689586;85;20963;-68
2021/06/07 02:35:24;;;;;;;8.95;3.02;;;;;;;13.05;100.00;99103.19;1689599;85;20916;-68
2021/06/07 02:37:52;;;;;;;6.85;2.87;;;;;;;13.09;100.00;99104.68;1689494;84;21157;-68
2021/06/07 02:40:27;;;;;;;5.28;3.00;;;;;;;13.12;100.00;99101.24;1689532;84;20975;-70
2021/06/07 02:42:54;;;;;;;6.20;2.58;;;;;;;13.12;100.00;99104.80;1689482;84;20999;-69
2021/06/07 02:45:21;;;;;;;5.58;2.98;;;;;;;13.13;100.00;99105.03;1689433;85;21545;-69
2021/06/07 02:47:51;;;;;;;4.62;2.85;;;;;;;13.14;100.00;99109.97;1689512;84;20900;-69
2021/06/07 02:50:21;;;;;;;6.37;3.40;;;;;;;13.15;100.00;99099.17;1689501;84;21150;-68
2021/06/07 02:52:48;;;;;;;4.72;2.92;;;;;;;13.18;100.00;99105.41;1689504;84;20896;-69
2021/06/07 02:55:18;;;;;;;9.60;3.75;;;;;;;13.22;100.00;99098.06;1689703;85;21426;-70
2021/06/07 02:57:46;;;;;;;5.92;3.10;;;;;;;13.26;100.00;99103.70;1689432;84;20987;-70
2021/06/07 03:00:16;;;;;;;6.28;3.50;;;;;;;13.30;100.00;99110.09;1689522;85;21490;-69
2021/06/07 03:02:43;;;;;;;4.37;2.90;;;;;;;13.33;100.00;99113.55;1684208;85;21088;-68
2021/06/07 03:05:10;;;;;;;6.87;3.20;;;;;;;13.34;100.00;99117.34;1689463;85;21489;-68
2021/06/07 03:07:37;;;;;;;5.35;3.25;;;;;;;13.36;100.00;99114.23;1672258;85;20981;-69
2021/06/07 03:10:07;;;;;;;8.38;3.55;;;;;;;13.38;100.00;99117.45;1661314;85;20914;-69
2021/06/07 03:12:35;;;;;;;6.62;3.17;;;;;;;13.39;100.00;99113.55;1636238;86;20981;-68
2021/06/07 03:15:06;;;;;;;7.80;3.65;;;;;;;13.42;100.00;99117.00;1657425;86;21189;-69
2021/06/07 03:17:33;;;;;;;6.00;3.05;;;;;;;13.45;100.00;99119.87;1635077;86;20961;-68
2021/06/07 03:19:59;;;;;;;5.85;3.17;;;;;;;13.48;100.00;99123.89;1657641;86;21429;-69
2021/06/07 03:22:25;;;;;;;8.95;3.90;;;;;;;13.52;100.00;99121.48;1657496;85;20949;-68
2021/06/07 03:24:51;;;;;;;4.60;2.83;;;;;;;13.57;100.00;99126.53;1657392;86;20998;-69
2021/06/07 03:27:18;;;;;;;4.45;3.33;;;;;;;13.60;100.00;99126.64;1657621;86;21149;-68
2021/06/07 03:29:45;;;;;;;4.55;3.10;;;;;;;13.66;100.00;99127.22;1657495;86;21572;-69
2021/06/07 03:32:12;;;;;;;5.90;3.55;;;;;;;13.67;100.00;99125.49;1657241;86;20961;-69
2021/06/07 03:34:39;;;;;;;5.65;3.52;;;;;;;13.69;100.00;99123.19;1657322;86;20968;-70
2021/06/07 03:37:06;;;;;;;6.55;3.40;;;;;;;13.71;100.00;99118.13;1657288;86;21485;-68
2021/06/07 03:39:33;;;;;;;6.42;3.12;;;;;;;13.74;100.00;99122.95;1657209;86;21568;-68
2021/06/07 03:41:59;;;;;;;6.92;3.22;;;;;;;13.79;100.00;99124.10;1657176;86;21461;-66
2021/06/07 03:44:26;;;;;;;6.90;3.35;;;;;;;13.83;100.00;99120.08;1657322;86;20954;-68
2021/06/07 03:46:52;;;;;;;5.60;3.33;;;;;;;13.86;100.00;99129.03;1657300;86;21009;-68
2021/06/07 03:49:19;;;;;;;5.85;3.12;;;;;;;13.89;100.00;99133.83;1657285;86;20917;-68
2021/06/07 03:51:46;;;;;;;4.20;3.00;;;;;;;13.94;100.00;99128.65;1657283;86;21221;-69
2021/06/07 03:54:12;;;;;;;4.97;3.47;;;;;;;14.04;100.00;99129.55;1657208;86;20953;-67
2021/06/07 03:56:39;;;;;;;4.33;2.77;;;;;;;14.14;100.00;99135.97;1638221;86;20972;-68
2021/06/07 03:59:05;;;;;;;9.00;3.17;;;;;;;14.18;100.00;99140.44;1638210;86;21019;-68
2021/06/07 04:01:32;;;;;;;7.53;3.60;;;;;;;14.22;100.00;99146.06;1651165;86;21012;-68
2021/06/07 04:03:59;;;;;;;5.10;3.20;;;;;;;14.30;100.00;99145.13;1663217;85;21150;-68
2021/06/07 04:06:25;;;;;;;5.67;3.20;;;;;;;14.36;100.00;99142.92;1658838;85;20901;-69
2021/06/07 04:08:56;;;;;;;4.97;3.30;;;;;;;14.39;99.90;99138.08;1621215;87;20980;-68
2021/06/07 04:11:21;;;;;;;4.25;3.30;;;;;;;14.42;99.71;99142.35;1655757;86;21007;-68
2021/06/07 04:13:47;;;;;;;3.65;2.70;;;;;;;14.46;99.36;99140.47;1689017;85;21474;-68
2021/06/07 04:16:14;;;;;;;4.42;3.42;;;;;;;14.51;99.10;99142.17;1688924;84;21943;-68
2021/06/07 04:18:42;;;;;;;4.00;3.25;;;;;;;14.57;99.18;99142.15;1688869;85;20954;-69
2021/06/07 04:21:09;;;;;;;11.45;3.50;;;;;;;14.64;99.30;99140.97;1684665;83;21491;-69
2021/06/07 04:23:35;;;;;;;13.00;3.27;;;;;;;14.72;98.80;99147.50;1688123;85;20884;-69
2021/06/07 04:26:03;;;;;;;8.35;3.22;;;;;;;14.82;98.45;99149.75;1688503;84;21439;-68
2021/06/07 04:28:33;;;;;;;6.08;3.42;;;;;;;14.89;98.28;99151.33;1676125;83;21110;-68
2021/06/07 04:31:01;;;;;;;4.62;3.00;;;;;;;14.99;98.27;99145.28;1688529;85;21530;-68
2021/06/07 04:33:27;;;;;;;6.65;3.30;;;;;;;15.13;98.38;99152.54;1688448;85;21015;-69
2021/06/07 04:35:54;;;;;;;6.35;3.20;;;;;;;15.22;97.70;99137.16;1689228;85;21023;-68
2021/06/07 04:38:20;;;;;;;3.75;3.20;;;;;;;15.32;97.29;99142.74;1689279;85;20947;-68
2021/06/07 04:40:47;;;;;;;7.60;3.70;;;;;;;15.37;96.19;99143.28;1684685;85;21151;-68
2021/06/07 04:43:14;;;;;;;6.22;3.27;;;;;;;15.42;95.33;99150.50;1660662;85;20970;-68
2021/06/07 04:45:43;;;;;;;7.37;3.37;;;;;;;15.47;94.84;99157.16;1694426;83;21050;-68
2021/06/07 04:48:10;;;;;;;6.45;3.33;;;;;;;15.52;94.69;99149.39;1662852;85;21002;-68
2021/06/07 04:50:36;;;;;;;5.95;3.62;;;;;;;15.57;93.95;99155.27;1675569;85;20935;-68
2021/06/07 04:53:04;;;;;;;5.47;3.17;;;;;;;15.63;93.85;99145.50;1661158;86;21768;-67
2021/06/07 04:55:46;;;;;;;6.80;3.15;;;;;;;15.68;92.92;99159.64;1661047;85;20903;-68
2021/06/07 04:58:17;;;;;;;;;;;;;;;15.72;93.49;99152.23;1663569;86;20994;-69
2021/06/07 05:00:48;;;;;;;5.80;3.70;;;;;;;15.77;93.15;99154.14;1653159;86;20452;-68
2021/06/07 05:03:15;;;;;;;6.55;3.15;;;;;;;15.78;92.62;99161.28;1688694;85;20900;-69
2021/06/07 05:05:44;;;;;;;4.75;3.10;;;;;;;15.84;91.41;99152.12;1667508;85;21182;-69
2021/06/07 05:08:10;;;;;;;5.35;3.37;;;;;;;15.96;91.77;99160.31;1683252;85;20959;-69
2021/06/07 05:10:37;;;;;;;5.95;3.80;;;;;;;16.14;92.14;99162.09;1685096;85;20927;-68
2021/06/07 05:13:03;;;;;;;10.82;4.70;;;;;;;16.31;91.41;99153.93;1682629;85;21513;-69
2021/06/07 05:15:30;;;;;;;8.85;4.37;;;;;;;16.47;90.89;99154.67;1682778;85;21359;-68
2021/06/07 05:17:56;;;;;;;14.30;5.33;;;;;;;16.66;90.73;99153.31;1682732;85;21743;-68
2021/06/07 05:20:25;;;;;;;12.37;4.85;;;;;;;16.89;90.81;99147.80;1682738;84;21070;-68
2021/06/07 05:22:51;;;;;;;13.83;5.42;;;;;;;17.14;90.73;99146.28;1673607;83;21101;-69
2021/06/07 05:25:19;;;;;;;5.53;3.52;;;;;;;17.42;89.37;99150.70;1662673;85;21099;-71
2021/06/07 05:27:46;;;;;;;4.85;2.52;;;;;;;17.67;86.66;99152.53;1650372;87;21035;-68
2021/06/07 05:30:13;;;;;;;3.90;2.55;;;;;;;17.90;87.05;99144.16;1649086;86;21138;-68
2021/06/07 05:32:40;;;;;;;3.10;2.70;;;;;;;18.07;83.36;99143.59;1659800;86;21039;-69
2021/06/07 05:35:08;;;;;;;5.60;3.12;;;;;;;18.10;79.45;99149.20;1659539;86;21089;-68
2021/06/07 05:37:35;;;;;;;5.22;2.70;;;;;;;18.11;80.86;99152.77;1659833;86;21051;-69
2021/06/07 05:40:02;;;;;;;13.35;5.97;;;;;;;18.18;82.00;99153.46;1659703;86;21570;-68
2021/06/07 05:42:28;;;;;;;6.53;3.83;;;;;;;18.23;79.75;99155.33;1659766;86;21100;-67
2021/06/07 05:44:54;;;;;;;5.53;3.55;;;;;;;18.19;80.27;99157.25;1659603;86;21072;-72
2021/06/07 05:47:21;;;;;;;13.58;3.98;;;;;;;18.11;78.85;99159.13;1659908;86;20998;-68
2021/06/07 05:49:47;;;;;;;12.47;5.60;;;;;;;18.03;79.35;99158.02;1659673;86;21007;-68
2021/06/07 05:52:14;;;;;;;13.05;6.45;;;;;;;18.03;79.27;99156.03;1659841;86;21087;-69
2021/06/07 05:54:43;;;;;;;7.28;3.25;;;;;;;18.03;79.21;99158.02;1611451;86;21128;-71
2021/06/07 05:57:10;;;;;;;10.40;4.22;;;;;;;17.98;77.81;99156.36;1660369;86;20996;-67
2021/06/07 05:59:37;;;;;;;11.10;3.42;;;;;;;17.89;78.48;99168.94;1632904;86;21061;-68
2021/06/07 06:02:07;;;;;;;7.85;3.70;;;;;;;17.84;78.48;99162.31;1659985;86;21032;-67
2021/06/07 06:04:34;;;;;;;7.30;3.05;;;;;;;17.85;79.24;99156.39;1659331;86;21023;-68
2021/06/07 06:07:01;;;;;;;8.58;3.10;;;;;;;18.05;80.66;99162.61;1659718;86;21147;-68
2021/06/07 06:09:28;;;;;;;3.60;2.87;;;;;;;18.22;78.58;99155.12;1659577;86;21550;-69
2021/06/07 06:11:57;;;;;;;4.12;2.72;;;;;;;18.36;78.26;99155.31;1661996;86;21035;-67
2021/06/07 06:14:26;;;;;;;5.75;2.20;;;;;;;18.57;79.20;99158.12;1662034;86;20964;-68
2021/06/07 06:16:54;;;;;;;5.75;2.72;;;;;;;18.79;79.16;99154.45;1661997;86;21028;-69
2021/06/07 06:19:22;;;;;;;5.67;3.12;;;;;;;18.98;76.38;99151.48;1662080;86;21539;-67
2021/06/07 06:21:51;;;;;;;4.72;2.65;;;;;;;19.12;76.36;99157.17;1661996;86;20968;-67
2021/06/07 06:24:17;;;;;;;3.15;2.25;;;;;;;19.28;74.13;99157.52;1663296;85;21577;-69
2021/06/07 06:26:44;;;;;;;5.15;2.90;;;;;;;19.35;72.32;99150.04;1646740;85;20987;-68
2021/06/07 06:29:10;;;;;;;4.75;2.62;;;;;;;19.34;71.70;99154.59;1617111;88;21001;-67
2021/06/07 06:31:37;;;;;;;6.10;2.70;;;;;;;19.26;71.46;99151.54;1616786;88;21093;-67
2021/06/07 06:34:03;;;;;;;5.30;2.50;;;;;;;19.19;72.26;99148.69;1616967;88;21025;-68
2021/06/07 06:36:30;;;;;;;5.83;2.45;;;;;;;19.16;71.50;99157.80;1617706;87;20902;-68
2021/06/07 06:38:57;;;;;;;4.22;2.50;;;;;;;19.16;72.93;99153.03;1659716;86;20940;-68
2021/06/07 06:41:25;;;;;;;3.37;2.65;;;;;;;19.35;74.01;99153.41;1662460;85;21657;-69
2021/06/07 06:43:52;;;;;;;7.17;2.77;;;;;;;19.59;73.42;99149.28;1663281;85;21183;-68
2021/06/07 06:46:18;;;;;;;9.13;3.08;;;;;;;19.75;71.58;99149.19;1662289;85;20919;-68
2021/06/07 06:48:45;;;;;;;10.35;2.87;;;;;;;19.86;70.35;99145.68;1663970;85;21050;-68
2021/06/07 06:51:11;;;;;;;3.20;2.47;;;;;;;19.99;70.45;99146.38;1667685;85;21103;-69
2021/06/07 06:53:38;;;;;;;4.72;2.90;;;;;;;20.18;70.19;99149.47;1661007;85;21435;-69
2021/06/07 06:56:06;;;;;;;5.03;3.40;;;;;;;20.38;69.28;99149.39;1659453;85;22800;-69
2021/06/07 06:58:33;;;;;;;7.95;2.60;;;;;;;20.49;68.39;99157.00;1662077;86;20956;-66
2021/06/07 07:00:59;;;;;;;2.83;2.33;;;;;;;20.56;67.76;99158.43;1662673;86;20972;-66
2021/06/07 07:03:27;;;;;;;5.03;2.25;;;;;;;20.63;68.15;99152.29;1662590;86;21492;-67
2021/06/07 07:05:55;;;;;;;7.67;2.70;;;;;;;20.67;67.48;99155.89;1662002;85;20995;-66
2021/06/07 07:08:23;;;;;;;4.03;2.27;;;;;;;20.65;67.58;99151.30;1662470;86;21157;-75
2021/06/07 07:10:53;;;;;;;3.95;2.55;;;;;;;20.62;67.93;99152.68;1660146;86;20948;-75
2021/06/07 07:13:19;;;;;;;5.03;2.20;;;;;;;20.54;66.77;99143.48;1657928;86;20956;-76
2021/06/07 07:15:47;;;;;;;7.60;2.90;;;;;;;20.44;68.13;99140.05;1657950;86;20921;-75
2021/06/07 07:18:13;;;;;;;4.45;2.00;;;;;;;20.38;67.08;99149.98;1658056;86;20988;-85
2021/06/07 07:20:42;;;;;;;3.47;2.12;;;;;;;20.29;66.86;99151.70;1658015;86;22022;-74
2021/06/07 07:23:08;;;;;;;4.22;2.85;;;;;;;20.24;66.64;99152.66;1657931;86;20916;-77
2021/06/07 07:25:35;;;;;;;4.37;2.10;;;;;;;20.23;68.16;99150.47;1658182;86;20984;-75
2021/06/07 07:28:04;;;;;;;3.90;2.20;;;;;;;20.32;68.51;99157.89;1658123;86;20983;-74
2021/06/07 07:30:33;;;;;;;4.30;2.55;;;;;;;20.48;68.82;99152.62;1657976;86;20972;-80
2021/06/07 07:33:00;;;;;;;3.55;1.90;;;;;;;20.68;67.60;99157.48;1659414;85;21102;-77
2021/06/07 07:35:26;;;;;;;4.40;2.10;;;;;;;20.89;65.84;99148.36;1667504;86;20912;-77
2021/06/07 07:37:53;;;;;;;6.40;1.85;;;;;;;21.09;64.96;99141.84;1650977;87;20996;-86
2021/06/07 07:40:22;;;;;;;3.27;2.20;;;;;;;21.28;65.18;99147.69;1639110;87;20916;-70
2021/06/07 07:42:50;;;;;;;3.95;2.40;;;;;;;21.46;64.86;99146.27;1639329;87;20888;-68
2021/06/07 07:45:19;;;;;;;2.62;1.80;;;;;;;21.61;64.06;99151.47;1651029;87;22010;-67
2021/06/07 07:47:45;;;;;;;4.47;2.40;;;;;;;21.71;62.90;99156.85;1639325;87;21008;-67
2021/06/07 07:50:16;;;;;;;3.35;2.30;;;;;;;21.73;62.37;99151.66;1651207;87;20992;-67
2021/06/07 07:52:42;;;;;;;2.10;1.80;;;;;;;21.72;61.72;99156.45;1650953;87;21505;-67
2021/06/07 07:55:10;;;;;;;4.60;2.35;;;;;;;21.69;61.62;99155.86;1639546;87;20920;-68
2021/06/07 07:57:37;;;;;;;4.80;2.10;;;;;;;21.70;61.50;99156.05;1639224;87;21479;-69
2021/06/07 08:00:07;;;;;;;4.75;2.70;;;;;;;21.88;61.51;99155.25;1651141;87;21126;-69
2021/06/07 08:02:35;;;;;;;4.87;3.00;;;;;;;22.00;59.59;99149.22;1650536;87;20995;-69
2021/06/07 08:05:02;;;;;;;5.97;2.25;;;;;;;22.08;59.27;99155.02;1639249;87;21601;-69
2021/06/07 08:07:28;;;;;;;2.55;2.33;;;;;;;22.13;59.66;99149.02;1650932;86;21491;-69
2021/06/07 08:09:55;;;;;;;5.87;2.37;;;;;;;22.24;59.30;99147.00;1650891;87;21209;-69
2021/06/07 08:12:21;;;;;;;5.28;2.20;;;;;;;22.40;58.30;99145.16;1655802;86;21091;-69
2021/06/07 08:14:48;;;;;;;5.60;2.52;;;;;;;22.55;56.42;99144.48;1689420;85;20912;-69
2021/06/07 08:17:16;;;;;;;4.17;2.10;;;;;;;22.69;55.47;99143.82;1689421;84;21542;-69
2021/06/07 08:19:42;;;;;;;5.30;2.33;;;;;;;22.87;56.80;99135.97;1689437;84;21055;-68
2021/06/07 08:22:10;;;;;;;3.92;2.22;;;;;;;22.96;54.81;99141.92;1689441;85;21505;-68
2021/06/07 08:24:37;;;;;;;5.08;2.12;;;;;;;23.07;56.34;99148.25;1689345;85;20868;-68
2021/06/07 08:27:05;;;;;;;9.43;2.22;;;;;;;23.32;56.77;99148.86;1689660;84;21545;-69
2021/06/07 08:29:32;;;;;;;2.37;1.92;;;;;;;23.78;57.29;99147.70;1689462;84;21015;-68
2021/06/07 08:31:59;;;;;;;3.55;2.00;;;;;;;24.12;52.74;99147.78;1689697;85;21000;-69
2021/06/07 08:34:25;;;;;;;5.53;2.37;;;;;;;24.18;53.76;99152.33;1689460;85;21125;-68
2021/06/07 08:36:52;;;;;;;3.98;2.00;;;;;;;24.17;53.02;99157.14;1689619;84;21023;-68
2021/06/07 08:39:19;;;;;;;3.52;2.30;;;;;;;24.13;52.81;99159.80;1689419;85;20872;-68
2021/06/07 08:41:46;;;;;;;2.20;1.82;;;;;;;24.06;53.67;99164.06;1689468;85;21510;-68
2021/06/07 08:44:12;;;;;;;3.02;2.12;;;;;;;24.07;54.15;99158.05;1689459;85;20998;-68
2021/06/07 08:46:39;;;;;;;3.00;2.08;;;;;;;24.06;54.08;99164.06;1689693;84;21110;-68
2021/06/07 08:49:05;;;;;;;4.92;2.20;;;;;;;23.95;54.41;99168.38;1689389;84;20974;-68
2021/06/07 08:51:32;;;;;;;4.53;2.37;;;;;;;23.75;50.91;99165.95;1689678;84;21090;-69
2021/06/07 08:53:58;;;;;;;6.87;2.37;;;;;;;23.45;52.12;99160.98;1689463;85;20939;-68
2021/06/07 08:56:25;;;;;;;8.10;2.25;;;;;;;23.16;53.77;99159.77;1689385;84;20927;-69
2021/06/07 08:58:51;;;;;;;5.33;2.60;;;;;;;22.96;56.36;99159.52;1689465;84;21972;-68
2021/06/07 09:01:18;;;;;;;7.42;2.27;;;;;;;22.79;57.81;99154.80;1689387;84;20900;-68
2021/06/07 09:03:44;;;;;;;5.97;2.42;;;;;;;22.73;58.36;99152.99;1689409;84;20999;-68
2021/06/07 09:06:12;;;;;;;6.60;2.55;;;;;;;22.77;56.04;99147.37;1689407;84;20947;-68
2021/06/07 09:08:39;;;;;;;4.58;2.60;;;;;;;22.83;57.84;99146.39;1689461;85;20992;-68
2021/06/07 09:11:16;;;;;;;6.45;2.50;;;;;;;22.96;56.45;99141.92;1680973;84;21194;-70
2021/06/07 09:13:44;;;;;;;4.62;2.83;;;;;;;23.21;57.18;99143.94;1666118;85;21015;-69
2021/06/07 09:16:11;;;;;;;3.15;2.40;;;;;;;23.78;56.56;99142.09;1686575;85;21432;-69
2021/06/07 09:18:45;;;;;;;6.30;3.02;;;;;;;24.49;55.51;99134.34;1686581;85;21019;-68
2021/06/07 09:21:19;;;;;;;3.65;2.45;;;;;;;25.04;50.62;99136.04;1686602;85;20984;-69
2021/06/07 09:23:56;;;;;;;5.45;2.85;;;;;;;25.15;48.55;99127.46;1684704;84;21157;-69
2021/06/07 09:26:32;;;;;;;4.35;2.30;;;;;;;24.95;50.40;99132.31;1663044;85;20915;-69
2021/06/07 09:29:01;;;;;;;10.68;2.58;;;;;;;24.83;51.83;99120.89;1672245;84;22519;-69
2021/06/07 09:31:36;;;;;;;2.60;2.40;;;;;;;25.16;52.40;99116.41;1690235;85;21439;-69
2021/06/07 09:34:06;;;;;;;6.30;2.65;;;;;;;25.68;50.33;99115.98;1690283;84;20940;-68
2021/06/07 09:36:40;;;;;;;8.60;2.58;;;;;;;26.12;50.27;99102.10;1635773;87;21936;-68
2021/06/07 09:39:25;;;;;;;7.80;2.25;;;;;;;26.57;48.67;99099.62;1663991;86;20917;-68
2021/06/07 09:41:58;;;;;;;6.40;2.25;;;;;;;26.92;44.31;99096.61;1646233;87;21003;-67
2021/06/07 09:44:43;;;;;;;3.05;2.20;;;;;;;27.11;45.89;99096.41;1641066;86;20981;-67
2021/06/07 09:47:25;;;;;;;4.85;2.45;;;;;;;27.24;42.82;99083.98;1648358;85;20920;-68
2021/06/07 09:50:04;;;;;;;3.42;2.20;;;;;;;27.37;43.66;99089.71;1673369;83;21096;-68
2021/06/07 09:52:44;;;;;;;5.37;2.40;;;;;;;27.54;43.56;99083.45;1691560;84;21635;-69
2021/06/07 09:55:13;;;;;;;3.55;2.30;;;;;;;27.70;43.77;99075.63;1690783;84;20941;-69
2021/06/07 09:58:05;;;;;;;7.10;2.05;;;;;;;27.92;44.10;99076.63;1690533;84;21540;-69
2021/06/07 10:00:48;;;;;;;2.47;2.10;;;;;;;28.07;41.32;99070.77;1691022;84;21077;-69
2021/06/07 10:03:29;;;;;;;7.78;2.37;;;;;;;28.12;40.39;99065.98;1691094;84;21702;-69
2021/06/07 10:06:01;;;;;;;4.58;2.40;;;;;;;28.15;40.98;99072.77;1679064;83;20873;-67
2021/06/07 10:08:46;;;;;;;5.37;2.53;;;;;;;28.08;42.03;99070.94;1649962;85;21470;-69
2021/06/07 10:11:37;;;;;;;4.28;2.45;;;;;;;28.12;41.41;99066.61;1690681;84;20990;-69
2021/06/07 10:14:19;;;;;;;6.70;2.75;;;;;;;28.15;40.96;99069.33;1678135;85;26781;-68
2021/06/07 10:16:59;;;;;;;3.47;2.50;;;;;;;28.21;40.76;99061.93;1661376;86;21587;-69
2021/06/07 10:19:46;;;;;;;2.95;1.92;;;;;;;28.20;42.45;99060.31;1661165;85;20898;-68
2021/06/07 10:22:04;;;;;;;4.83;2.17;;;;;;;28.12;41.33;99058.94;1659765;86;20982;-70
2021/06/07 10:24:31;;;;;;;3.47;2.10;;;;;;;27.83;40.20;99062.36;1661245;86;20883;-70
2021/06/07 10:26:58;;;;;;;6.65;2.30;;;;;;;27.32;40.95;99059.86;1661269;86;20915;-69
2021/06/07 10:29:42;;;;;;;4.37;2.70;;;;;;;26.75;42.54;99064.80;1661423;86;21057;-69
2021/06/07 10:32:10;;;;;;;6.62;3.20;;;;;;;26.15;44.28;99068.89;1661147;86;20982;-69
2021/06/07 10:34:57;;;;;;;18.00;3.65;;;;;;;25.45;52.13;99118.94;1661449;86;21442;-69
2021/06/07 10:37:25;;;;;;;10.78;3.98;;;;;;;24.19;53.16;99081.80;1661228;86;20902;-69
2021/06/07 10:39:53;;;;;;;15.88;3.58;;;;;;;22.57;57.31;99084.73;1661290;85;20998;-68
2021/06/07 10:42:23;;;;;;;9.53;4.15;;;;;;;21.77;62.29;99069.25;1661175;86;21128;-69
2021/06/07 10:44:54;;;;;;;12.50;3.35;;;;;;;21.17;64.33;99068.69;1635274;86;20910;-69
2021/06/07 10:47:24;;;;;;;8.97;3.90;;;;;;;20.81;66.36;99090.95;1661374;86;20895;-68
2021/06/07 10:50:09;;;;;;;20.77;4.40;;;;;;;20.49;68.67;99098.45;1669498;83;20907;-68
2021/06/07 10:52:50;;;;;;;5.62;3.45;;;;;;;20.16;70.08;99107.86;1628278;85;21493;-69
2021/06/07 10:55:14;;;;;;;9.35;3.85;;;;;;;19.82;68.65;99106.66;1688631;85;21123;-69
2021/06/07 10:57:58;;;;;;;6.40;3.40;;;;;;;19.60;69.98;99104.34;1688845;85;20936;-70
2021/06/07 11:00:43;;;;;;;7.03;2.62;;;;;;;19.45;69.32;99095.65;1688908;85;20986;-70
2021/06/07 11:03:23;;;;;;;7.47;2.58;;;;;;;19.35;69.37;99094.97;1680268;85;21118;-71
2021/06/07 11:05:57;;;;;;;4.47;2.52;;;;;;;19.22;70.05;99097.84;1667467;85;21010;-70
2021/06/07 11:08:30;;;;;;;6.47;2.70;;;;;;;19.07;70.46;99089.95;1668363;86;21160;-71
2021/06/07 11:11:13;;;;;;;7.80;3.15;;;;;;;18.94;71.69;99082.51;1654881;86;21555;-71
2021/06/07 11:14:01;;;;;;;7.03;3.15;;;;;;;18.87;73.16;99081.05;1653814;86;21531;-72
2021/06/07 11:16:34;;;;;;;6.28;2.60;;;;;;;18.80;73.93;99077.60;1653980;86;21051;-71
2021/06/07 11:19:02;;;;;;;7.40;3.03;;;;;;;18.82;74.27;99070.86;1657094;86;21466;-71
2021/06/07 11:21:46;;;;;;;6.08;2.92;;;;;;;18.84;75.07;99076.25;1657394;86;21145;-71
2021/06/07 11:24:35;;;;;;;9.23;3.30;;;;;;;18.85;75.46;99062.55;1657567;86;21017;-70
2021/06/07 11:27:04;;;;;;;7.85;3.60;;;;;;;18.89;75.64;99057.83;1659811;86;21087;-71
2021/06/07 11:29:32;;;;;;;8.33;4.05;;;;;;;18.98;76.67;99051.36;1644374;86;21070;-70
2021/06/07 11:32:10;;;;;;;8.35;3.52;;;;;;;19.06;76.76;99058.55;1653894;86;21689;-70
2021/06/07 11:34:46;;;;;;;8.85;4.15;;;;;;;19.16;77.17;99052.08;1653622;86;21162;-69
2021/06/07 11:37:36;;;;;;;6.95;4.08;;;;;;;19.26;77.34;99053.55;1657045;85;21067;-70
2021/06/07 11:40:08;;;;;;;11.03;4.15;;;;;;;19.35;77.65;99060.98;1658802;86;20926;-70